sensor_id;sensor_type;location;lat;lon;timestamp;pressure;altitude;pressure_sealevel;temperature;humidity
23363;BME280;11853;48.080;11.960;2023-08-30T00:00:18;94194.38;;;13.47;100.00
23363;BME280;11853;48.080;11.960;2023-08-30T00:02:46;94195.03;;;13.49;100.00
23363;BME280;11853;48.080;11.960;2023-08-30T00:05:13;94201.00;;;13.51;100.00
23363;BME280;11853;48.080;11.960;2023-08-30T00:07:38;94193.19;;;13.49;100.00
23363;BME280;11853;48.080;11.960;2023-08-30T00:10:06;94193.81;;;13.51;100.00
23363;BME280;11853;48.080;11.960;2023-08-30T00:12:32;94194.28;;;13.55;100.00
23363;BME280;11853;48.080;11.960;2023-08-30T00:14:58;94195.72;;;13.58;100.00
23363;BME280;11853;48.080;11.960;2023-08-30T00:17:23;94194.91;;;13.57;100.00
23363;BME280;11853;48.080;11.960;2023-08-30T00:19:49;94197.56;;;13.57;100.00
23363;BME280;11853;48.080;11.960;2023-08-30T00:22:14;94193.44;;;13.55;100.00
23363;BME280;11853;48.080;11.960;2023-08-30T00:24:40;94195.66;;;13.51;100.00
23363;BME280;11853;48.080;11.960;2023-08-30T00:27:05;94203.47;;;13.52;100.00
23363;BME280;11853;48.080;11.960;2023-08-30T00:29:31;94199.81;;;13.54;100.00
23363;BME280;11853;48.080;11.960;2023-08-30T00:31:57;94203.28;;;13.54;100.00
23363;BME280;11853;48.080;11.960;2023-08-30T00:34:22;94198.94;;;13.53;100.00
23363;BME280;11853;48.080;11.960;2023-08-30T00:36:48;94198.94;;;13.53;100.00
23363;BME280;11853;48.080;11.960;2023-08-30T00:39:14;94195.47;;;13.52;100.00
23363;BME280;11853;48.080;11.960;2023-08-30T00:41:39;94189.50;;;13.50;100.00
23363;BME280;11853;48.080;11.960;2023-08-30T00:44:05;94191.91;;;13.45;100.00
23363;BME280;11853;48.080;11.960;2023-08-30T00:46:32;94196.41;;;13.45;100.00
23363;BME280;11853;48.080;11.960;2023-08-30T00:48:59;94195.19;;;13.47;100.00
23363;BME280;11853;48.080;11.960;2023-08-30T00:51:26;94197.03;;;13.47;100.00
23363;BME280;11853;48.080;11.960;2023-08-30T00:53:55;94207.69;;;13.47;100.00
23363;BME280;11853;48.080;11.960;2023-08-30T00:56:21;94211.19;;;13.47;100.00
23363;BME280;11853;48.080;11.960;2023-08-30T00:58:49;94209.53;;;13.46;100.00
23363;BME280;11853;48.080;11.960;2023-08-30T01:01:17;94213.03;;;13.47;100.00
23363;BME280;11853;48.080;11.960;2023-08-30T01:03:44;94213.03;;;13.47;100.00
23363;BME280;11853;48.080;11.960;2023-08-30T01:06:09;94212.03;;;13.48;100.00
23363;BME280;11853;48.080;11.960;2023-08-30T01:08:36;94210.34;;;13.47;100.00
23363;BME280;11853;48.080;11.960;2023-08-30T01:11:16;94203.00;;;13.49;100.00
23363;BME280;11853;48.080;11.960;2023-08-30T01:13:53;94209.97;;;13.50;100.00
23363;BME280;11853;48.080;11.960;2023-08-30T01:16:48;94204.03;;;13.48;100.00
23363;BME280;11853;48.080;11.960;2023-08-30T01:19:31;94210.56;;;13.45;100.00
23363;BME280;11853;48.080;11.960;2023-08-30T01:22:11;94203.56;;;13.44;100.00
23363;BME280;11853;48.080;11.960;2023-08-30T01:24:55;94190.25;;;13.44;100.00
23363;BME280;11853;48.080;11.960;2023-08-30T01:27:24;94190.44;;;13.43;100.00
23363;BME280;11853;48.080;11.960;2023-08-30T01:29:54;94189.78;;;13.41;100.00
23363;BME280;11853;48.080;11.960;2023-08-30T01:32:21;94198.16;;;13.38;100.00
23363;BME280;11853;48.080;11.960;2023-08-30T01:34:50;94201.19;;;13.35;100.00
23363;BME280;11853;48.080;11.960;2023-08-30T01:37:17;94202.66;;;13.37;100.00
23363;BME280;11853;48.080;11.960;2023-08-30T01:39:44;94198.97;;;13.38;100.00
23363;BME280;11853;48.080;11.960;2023-08-30T01:42:11;94195.50;;;13.38;100.00
23363;BME280;11853;48.080;11.960;2023-08-30T01:44:38;94196.69;;;13.35;100.00
23363;BME280;11853;48.080;11.960;2023-08-30T01:47:05;94201.19;;;13.35;100.00
23363;BME280;11853;48.080;11.960;2023-08-30T01:49:32;94196.69;;;13.35;100.00
23363;BME280;11853;48.080;11.960;2023-08-30T01:51:58;94192.19;;;13.36;100.00
23363;BME280;11853;48.080;11.960;2023-08-30T01:54:25;94199.19;;;13.37;100.00
23363;BME280;11853;48.080;11.960;2023-08-30T01:57:04;94191.81;;;13.39;100.00
23363;BME280;11853;48.080;11.960;2023-08-30T01:59:30;94195.50;;;13.38;100.00
23363;BME280;11853;48.080;11.960;2023-08-30T02:01:56;94192.19;;;13.36;100.00
23363;BME280;11853;48.080;11.960;2023-08-30T02:04:22;94194.84;;;13.36;100.00
23363;BME280;11853;48.080;11.960;2023-08-30T02:07:03;94193.38;;;13.33;100.00
23363;BME280;11853;48.080;11.960;2023-08-30T02:12:07;94185.97;;;13.28;100.00
23363;BME280;11853;48.080;11.960;2023-08-30T02:14:36;94196.31;;;13.38;100.00
23363;BME280;11853;48.080;11.960;2023-08-30T02:17:04;94200.44;;;13.41;100.00
23363;BME280;11853;48.080;11.960;2023-08-30T02:19:32;94191.81;;;13.39;100.00
23363;BME280;11853;48.080;11.960;2023-08-30T02:21:59;94199.19;;;13.37;100.00
23363;BME280;11853;48.080;11.960;2023-08-30T02:24:24;94187.50;;;13.38;100.00
23363;BME280;11853;48.080;11.960;2023-08-30T02:26:50;94197.13;;;13.39;100.00
23363;BME280;11853;48.080;11.960;2023-08-30T02:29:16;94200.19;;;13.36;100.00
23363;BME280;11853;48.080;11.960;2023-08-30T02:31:41;94202.00;;;13.35;100.00
23363;BME280;11853;48.080;11.960;2023-08-30T02:34:07;94203.88;;;13.35;100.00
23363;BME280;11853;48.080;11.960;2023-08-30T02:36:33;94202.66;;;13.37;100.00
23363;BME280;11853;48.080;11.960;2023-08-30T02:38:58;94204.31;;;13.38;100.00
23363;BME280;11853;48.080;11.960;2023-08-30T02:41:24;94204.50;;;13.37;100.00
23363;BME280;11853;48.080;11.960;2023-08-30T02:43:50;94206.16;;;13.38;100.00
23363;BME280;11853;48.080;11.960;2023-08-30T02:46:15;94202.47;;;13.39;100.00
23363;BME280;11853;48.080;11.960;2023-08-30T02:48:41;94191.38;;;13.35;100.00
23363;BME280;11853;48.080;11.960;2023-08-30T02:51:06;94192.56;;;13.33;100.00
23363;BME280;11853;48.080;11.960;2023-08-30T02:53:32;94201.19;;;13.35;100.00
23363;BME280;11853;48.080;11.960;2023-08-30T02:55:58;94200.28;;;13.27;100.00
23363;BME280;11853;48.080;11.960;2023-08-30T02:58:23;94198.47;;;13.28;100.00
23363;BME280;11853;48.080;11.960;2023-08-30T03:00:49;94200.63;;;13.24;100.00
23363;BME280;11853;48.080;11.960;2023-08-30T03:03:15;94202.47;;;13.24;100.00
23363;BME280;11853;48.080;11.960;2023-08-30T03:05:40;94192.00;;;13.22;100.00
23363;BME280;11853;48.080;11.960;2023-08-30T03:08:06;94198.97;;;13.23;100.00
23363;BME280;11853;48.080;11.960;2023-08-30T03:10:32;94198.81;;;13.25;100.00
23363;BME280;11853;48.080;11.960;2023-08-30T03:12:57;94185.47;;;13.25;100.00
23363;BME280;11853;48.080;11.960;2023-08-30T03:15:23;94192.94;;;13.29;100.00
23363;BME280;11853;48.080;11.960;2023-08-30T03:17:49;94186.59;;;13.31;100.00
23363;BME280;11853;48.080;11.960;2023-08-30T03:20:14;94194.94;;;13.27;100.00
23363;BME280;11853;48.080;11.960;2023-08-30T03:22:41;94187.97;;;13.26;100.00
23363;BME280;11853;48.080;11.960;2023-08-30T03:25:07;94190.25;;;13.29;100.00
23363;BME280;11853;48.080;11.960;2023-08-30T03:27:34;94183.47;;;13.27;100.00
23363;BME280;11853;48.080;11.960;2023-08-30T03:30:02;94191.09;;;13.30;100.00
23363;BME280;11853;48.080;11.960;2023-08-30T03:32:27;94191.56;;;13.34;100.00
23363;BME280;11853;48.080;11.960;2023-08-30T03:34:53;94195.88;;;13.35;100.00
23363;BME280;11853;48.080;11.960;2023-08-30T03:37:19;94194.22;;;13.34;100.00
23363;BME280;11853;48.080;11.960;2023-08-30T03:39:44;94185.59;;;13.32;100.00
23363;BME280;11853;48.080;11.960;2023-08-30T03:42:10;94190.53;;;13.35;100.00
23363;BME280;11853;48.080;11.960;2023-08-30T03:44:37;94194.22;;;13.34;100.00
23363;BME280;11853;48.080;11.960;2023-08-30T03:47:04;94192.19;;;13.36;100.00
23363;BME280;11853;48.080;11.960;2023-08-30T03:49:29;94182.44;;;13.43;100.00
23363;BME280;11853;48.080;11.960;2023-08-30T03:51:55;94189.03;;;13.47;100.00
23363;BME280;11853;48.080;11.960;2023-08-30T03:54:21;94184.47;;;13.41;100.00
23363;BME280;11853;48.080;11.960;2023-08-30T03:56:47;94186.47;;;13.39;100.00
23363;BME280;11853;48.080;11.960;2023-08-30T03:59:13;94180.78;;;13.42;100.00
23363;BME280;11853;48.080;11.960;2023-08-30T04:01:38;94191.44;;;13.42;100.00
23363;BME280;11853;48.080;11.960;2023-08-30T04:04:04;94189.41;;;13.44;100.00
23363;BME280;11853;48.080;11.960;2023-08-30T04:06:31;94184.47;;;13.41;100.00
23363;BME280;11853;48.080;11.960;2023-08-30T04:08:57;94186.47;;;13.39;100.00
23363;BME280;11853;48.080;11.960;2023-08-30T04:11:23;94193.84;;;13.37;100.00
23363;BME280;11853;48.080;11.960;2023-08-30T04:13:48;94202.00;;;13.35;100.00
23363;BME280;11853;48.080;11.960;2023-08-30T04:16:14;94187.88;;;13.35;100.00
23363;BME280;11853;48.080;11.960;2023-08-30T04:18:40;94193.84;;;13.37;100.00
23363;BME280;11853;48.080;11.960;2023-08-30T04:21:06;94191.38;;;13.35;100.00
23363;BME280;11853;48.080;11.960;2023-08-30T04:23:33;94193.19;;;13.35;100.00
23363;BME280;11853;48.080;11.960;2023-08-30T04:25:59;94199.81;;;13.39;100.00
23363;BME280;11853;48.080;11.960;2023-08-30T04:28:25;94193.47;;;13.40;100.00
23363;BME280;11853;48.080;11.960;2023-08-30T04:30:56;94197.13;;;13.39;100.00
23363;BME280;11853;48.080;11.960;2023-08-30T04:33:22;94192.19;;;13.36;100.00
23363;BME280;11853;48.080;11.960;2023-08-30T04:35:51;94194.09;;;13.42;100.00
23363;BME280;11853;48.080;11.960;2023-08-30T04:38:17;94204.31;;;13.38;100.00
23363;BME280;11853;48.080;11.960;2023-08-30T04:40:43;94201.66;;;13.38;100.00
23363;BME280;11853;48.080;11.960;2023-08-30T04:43:08;94199.19;;;13.37;100.00
23363;BME280;11853;48.080;11.960;2023-08-30T04:45:35;94201.84;;;13.37;100.00
23363;BME280;11853;48.080;11.960;2023-08-30T04:48:01;94201.00;;;13.36;100.00
23363;BME280;11853;48.080;11.960;2023-08-30T04:50:26;94202.00;;;13.35;100.00
23363;BME280;11853;48.080;11.960;2023-08-30T04:52:52;94203.88;;;13.35;100.00
23363;BME280;11853;48.080;11.960;2023-08-30T04:55:18;94203.88;;;13.35;100.00
23363;BME280;11853;48.080;11.960;2023-08-30T04:57:43;94202.59;;;13.31;100.00
23363;BME280;11853;48.080;11.960;2023-08-30T05:00:14;94191.28;;;13.28;100.00
23363;BME280;11853;48.080;11.960;2023-08-30T05:02:39;94198.25;;;13.29;100.00
23363;BME280;11853;48.080;11.960;2023-08-30T05:05:07;94203.88;;;13.35;100.00
23363;BME280;11853;48.080;11.960;2023-08-30T05:07:33;94197.88;;;13.33;100.00
23363;BME280;11853;48.080;11.960;2023-08-30T05:09:59;94203.59;;;13.29;100.00
23363;BME280;11853;48.080;11.960;2023-08-30T05:12:24;94200.75;;;13.31;100.00
23363;BME280;11853;48.080;11.960;2023-08-30T05:14:50;94200.91;;;13.29;100.00
23363;BME280;11853;48.080;11.960;2023-08-30T05:17:16;94207.06;;;13.30;100.00
23363;BME280;11853;48.080;11.960;2023-08-30T05:19:41;94203.41;;;13.31;100.00
23363;BME280;11853;48.080;11.960;2023-08-30T05:22:07;94198.91;;;13.32;100.00
23363;BME280;11853;48.080;11.960;2023-08-30T05:24:33;94201.56;;;13.32;100.00
23363;BME280;11853;48.080;11.960;2023-08-30T05:26:59;94198.69;;;13.33;100.00
23363;BME280;11853;48.080;11.960;2023-08-30T05:29:24;94197.88;;;13.33;100.00
23363;BME280;11853;48.080;11.960;2023-08-30T05:31:50;94199.94;;;13.31;100.00
23363;BME280;11853;48.080;11.960;2023-08-30T05:34:16;94195.06;;;13.34;100.00
23363;BME280;11853;48.080;11.960;2023-08-30T05:36:41;94200.38;;;13.34;100.00
23363;BME280;11853;48.080;11.960;2023-08-30T05:39:07;94202.84;;;13.36;100.00
23363;BME280;11853;48.080;11.960;2023-08-30T05:41:33;94201.19;;;13.35;100.00
23363;BME280;11853;48.080;11.960;2023-08-30T05:43:58;94205.34;;;13.37;100.00
23363;BME280;11853;48.080;11.960;2023-08-30T05:46:24;94208.00;;;13.37;100.00
23363;BME280;11853;48.080;11.960;2023-08-30T05:48:50;94207.78;;;13.39;100.00
23363;BME280;11853;48.080;11.960;2023-08-30T05:51:16;94202.84;;;13.36;100.00
23363;BME280;11853;48.080;11.960;2023-08-30T05:53:41;94204.50;;;13.37;100.00
23363;BME280;11853;48.080;11.960;2023-08-30T05:56:07;94210.00;;;13.35;100.00
23363;BME280;11853;48.080;11.960;2023-08-30T05:58:33;94204.50;;;13.37;100.00
23363;BME280;11853;48.080;11.960;2023-08-30T06:00:58;94208.66;;;13.39;100.00
23363;BME280;11853;48.080;11.960;2023-08-30T06:03:25;94210.09;;;13.42;100.00
23363;BME280;11853;48.080;11.960;2023-08-30T06:05:51;94212.41;;;13.45;100.00
23363;BME280;11853;48.080;11.960;2023-08-30T06:08:17;94212.84;;;13.48;100.00
23363;BME280;11853;48.080;11.960;2023-08-30T06:10:43;94217.38;;;13.48;100.00
23363;BME280;11853;48.080;11.960;2023-08-30T06:13:09;94219.00;;;13.49;100.00
23363;BME280;11853;48.080;11.960;2023-08-30T06:15:37;94220.66;;;13.50;100.00
23363;BME280;11853;48.080;11.960;2023-08-30T06:18:04;94221.28;;;13.52;100.00
23363;BME280;11853;48.080;11.960;2023-08-30T06:20:30;94219.28;;;13.54;100.00
23363;BME280;11853;48.080;11.960;2023-08-30T06:22:58;94218.53;;;13.60;100.00
23363;BME280;11853;48.080;11.960;2023-08-30T06:25:24;94210.97;;;13.64;100.00
23363;BME280;11853;48.080;11.960;2023-08-30T06:27:57;94210.81;;;13.65;100.00
23363;BME280;11853;48.080;11.960;2023-08-30T06:30:28;94220.81;;;13.63;100.00
23363;BME280;11853;48.080;11.960;2023-08-30T06:32:55;94212.16;;;13.61;100.00
23363;BME280;11853;48.080;11.960;2023-08-30T06:35:21;94209.34;;;13.63;100.00
23363;BME280;11853;48.080;11.960;2023-08-30T06:37:47;94209.94;;;13.65;100.00
23363;BME280;11853;48.080;11.960;2023-08-30T06:40:13;94214.72;;;13.69;100.00
23363;BME280;11853;48.080;11.960;2023-08-30T06:42:39;94220.97;;;13.77;100.00
23363;BME280;11853;48.080;11.960;2023-08-30T06:45:05;94213.59;;;13.79;100.00
23363;BME280;11853;48.080;11.960;2023-08-30T06:47:34;94221.88;;;13.84;100.00
23363;BME280;11853;48.080;11.960;2023-08-30T06:50:00;94219.03;;;13.85;100.00
23363;BME280;11853;48.080;11.960;2023-08-30T06:52:26;94218.81;;;13.87;100.00
23363;BME280;11853;48.080;11.960;2023-08-30T06:54:52;94209.81;;;13.88;100.00
23363;BME280;11853;48.080;11.960;2023-08-30T06:57:18;94212.72;;;13.93;100.00
23363;BME280;11853;48.080;11.960;2023-08-30T06:59:45;94217.88;;;13.94;100.00
23363;BME280;11853;48.080;11.960;2023-08-30T07:02:11;94211.34;;;13.97;100.00
23363;BME280;11853;48.080;11.960;2023-08-30T07:04:36;94211.16;;;13.98;100.00
23363;BME280;11853;48.080;11.960;2023-08-30T07:07:02;94203.63;;;14.02;100.00
23363;BME280;11853;48.080;11.960;2023-08-30T07:09:28;94201.00;;;14.09;100.00
23363;BME280;11853;48.080;11.960;2023-08-30T07:11:58;94203.66;;;14.09;100.00
23363;BME280;11853;48.080;11.960;2023-08-30T07:14:24;94204.50;;;14.09;100.00
23363;BME280;11853;48.080;11.960;2023-08-30T07:16:50;94207.41;;;14.14;100.00
23363;BME280;11853;48.080;11.960;2023-08-30T07:19:19;94203.34;;;14.18;100.00
23363;BME280;11853;48.080;11.960;2023-08-30T07:21:44;94201.31;;;14.20;100.00
23363;BME280;11853;48.080;11.960;2023-08-30T07:24:10;94204.63;;;14.23;100.00
23363;BME280;11853;48.080;11.960;2023-08-30T07:26:36;94204.25;;;14.26;100.00
23363;BME280;11853;48.080;11.960;2023-08-30T07:29:03;94201.63;;;14.32;100.00
23363;BME280;11853;48.080;11.960;2023-08-30T07:31:32;94209.47;;;14.34;100.00
23363;BME280;11853;48.080;11.960;2023-08-30T07:33:58;94208.03;;;14.38;100.00
23363;BME280;11853;48.080;11.960;2023-08-30T07:36:27;94211.34;;;14.40;100.00
23363;BME280;11853;48.080;11.960;2023-08-30T07:38:53;94217.94;;;14.44;100.00
23363;BME280;11853;48.080;11.960;2023-08-30T07:41:19;94224.94;;;14.45;100.00
23363;BME280;11853;48.080;11.960;2023-08-30T07:43:45;94228.44;;;14.46;100.00
23363;BME280;11853;48.080;11.960;2023-08-30T07:46:10;94226.78;;;14.45;100.00
23363;BME280;11853;48.080;11.960;2023-08-30T07:48:36;94234.59;;;14.46;100.00
23363;BME280;11853;48.080;11.960;2023-08-30T07:51:02;94231.94;;;14.46;100.00
23363;BME280;11853;48.080;11.960;2023-08-30T07:53:27;94230.50;;;14.50;100.00
23363;BME280;11853;48.080;11.960;2023-08-30T07:55:53;94237.28;;;14.46;100.00
23363;BME280;11853;48.080;11.960;2023-08-30T07:58:19;94237.91;;;14.48;100.00
23363;BME280;11853;48.080;11.960;2023-08-30T08:00:44;94236.88;;;14.49;100.00
23363;BME280;11853;48.080;11.960;2023-08-30T08:03:10;94246.19;;;14.53;100.00
23363;BME280;11853;48.080;11.960;2023-08-30T08:05:36;94241.31;;;14.57;100.00
23363;BME280;11853;48.080;11.960;2023-08-30T08:08:03;94243.59;;;14.60;100.00
23363;BME280;11853;48.080;11.960;2023-08-30T08:10:32;94234.38;;;14.62;100.00
23363;BME280;11853;48.080;11.960;2023-08-30T08:13:01;94244.84;;;14.64;100.00
23363;BME280;11853;48.080;11.960;2023-08-30T08:15:29;94244.28;;;14.69;100.00
23363;BME280;11853;48.080;11.960;2023-08-30T08:17:59;94247.56;;;14.71;100.00
23363;BME280;11853;48.080;11.960;2023-08-30T08:20:26;94241.59;;;14.69;100.00
23363;BME280;11853;48.080;11.960;2023-08-30T08:22:52;94249.22;;;14.72;100.00
23363;BME280;11853;48.080;11.960;2023-08-30T08:25:17;94252.31;;;14.75;100.00
23363;BME280;11853;48.080;11.960;2023-08-30T08:27:43;94253.63;;;14.79;100.00
23363;BME280;11853;48.080;11.960;2023-08-30T08:30:09;94250.72;;;14.81;100.00
23363;BME280;11853;48.080;11.960;2023-08-30T08:32:36;94249.31;;;14.85;100.00
23363;BME280;11853;48.080;11.960;2023-08-30T08:35:02;94250.59;;;14.89;100.00
23363;BME280;11853;48.080;11.960;2023-08-30T08:37:28;94248.34;;;14.93;100.00
23363;BME280;11853;48.080;11.960;2023-08-30T08:39:54;94252.09;;;14.98;100.00
23363;BME280;11853;48.080;11.960;2023-08-30T08:42:20;94240.63;;;15.04;100.00
23363;BME280;11853;48.080;11.960;2023-08-30T08:44:54;94241.25;;;15.06;100.00
23363;BME280;11853;48.080;11.960;2023-08-30T08:47:21;94238.00;;;15.11;100.00
23363;BME280;11853;48.080;11.960;2023-08-30T08:49:47;94246.47;;;15.15;100.00
23363;BME280;11853;48.080;11.960;2023-08-30T08:52:14;94248.50;;;15.13;100.00
23363;BME280;11853;48.080;11.960;2023-08-30T08:54:40;94245.44;;;15.16;100.00
23363;BME280;11853;48.080;11.960;2023-08-30T08:57:07;94237.41;;;15.16;100.00
23363;BME280;11853;48.080;11.960;2023-08-30T08:59:33;94238.28;;;15.23;100.00
23363;BME280;11853;48.080;11.960;2023-08-30T09:02:02;94234.22;;;15.33;100.00
23363;BME280;11853;48.080;11.960;2023-08-30T09:04:31;94235.34;;;15.46;100.00
23363;BME280;11853;48.080;11.960;2023-08-30T09:07:07;94237.63;;;15.55;100.00
23363;BME280;11853;48.080;11.960;2023-08-30T09:09:36;94236.66;;;15.63;100.00
23363;BME280;11853;48.080;11.960;2023-08-30T09:12:02;94240.63;;;15.74;100.00
23363;BME280;11853;48.080;11.960;2023-08-30T09:14:28;94234.09;;;15.83;100.00
23363;BME280;11853;48.080;11.960;2023-08-30T09:17:01;94236.59;;;15.91;100.00
23363;BME280;11853;48.080;11.960;2023-08-30T09:19:27;94230.22;;;15.99;100.00
23363;BME280;11853;48.080;11.960;2023-08-30T09:22:01;94231.66;;;16.02;100.00
23363;BME280;11853;48.080;11.960;2023-08-30T09:24:38;94229.41;;;16.05;100.00
23363;BME280;11853;48.080;11.960;2023-08-30T09:27:04;94232.13;;;16.12;100.00
23363;BME280;11853;48.080;11.960;2023-08-30T09:29:30;94225.72;;;16.19;100.00
23363;BME280;11853;48.080;11.960;2023-08-30T09:31:57;94220.59;;;16.25;100.00
23363;BME280;11853;48.080;11.960;2023-08-30T09:34:24;94232.13;;;16.25;100.00
23363;BME280;11853;48.080;11.960;2023-08-30T09:36:51;94229.25;;;16.33;100.00
23363;BME280;11853;48.080;11.960;2023-08-30T09:39:17;94229.25;;;16.33;100.00
23363;BME280;11853;48.080;11.960;2023-08-30T09:41:48;94231.34;;;16.31;100.00
23363;BME280;11853;48.080;11.960;2023-08-30T09:44:18;94222.69;;;16.29;100.00
23363;BME280;11853;48.080;11.960;2023-08-30T09:46:46;94230.72;;;16.29;100.00
23363;BME280;11853;48.080;11.960;2023-08-30T09:49:14;94227.03;;;16.37;100.00
23363;BME280;11853;48.080;11.960;2023-08-30T09:51:41;94226.81;;;16.38;100.00
23363;BME280;11853;48.080;11.960;2023-08-30T09:54:14;94219.81;;;16.51;100.00
23363;BME280;11853;48.080;11.960;2023-08-30T09:56:41;94223.13;;;16.59;100.00
23363;BME280;11853;48.080;11.960;2023-08-30T09:59:10;94224.34;;;16.70;100.00
23363;BME280;11853;48.080;11.960;2023-08-30T10:01:37;94214.50;;;16.77;100.00
23363;BME280;11853;48.080;11.960;2023-08-30T10:04:03;94213.66;;;16.97;100.00
23363;BME280;11853;48.080;11.960;2023-08-30T10:06:29;94220.47;;;17.06;100.00
23363;BME280;11853;48.080;11.960;2023-08-30T10:08:56;94210.94;;;17.17;100.00
23363;BME280;11853;48.080;11.960;2023-08-30T10:11:23;94204.94;;;17.34;100.00
23363;BME280;11853;48.080;11.960;2023-08-30T10:13:51;94202.00;;;17.49;100.00
23363;BME280;11853;48.080;11.960;2023-08-30T10:16:23;94208.59;;;17.60;100.00
23363;BME280;11853;48.080;11.960;2023-08-30T10:18:52;94201.97;;;17.56;100.00
23363;BME280;11853;48.080;11.960;2023-08-30T10:21:20;94195.81;;;17.49;100.00
23363;BME280;11853;48.080;11.960;2023-08-30T10:23:50;94197.28;;;17.51;100.00
23363;BME280;11853;48.080;11.960;2023-08-30T10:26:23;94192.53;;;17.47;100.00
23363;BME280;11853;48.080;11.960;2023-08-30T10:28:51;94195.41;;;17.52;100.00
23363;BME280;11853;48.080;11.960;2023-08-30T10:31:18;94191.69;;;17.53;100.00
23363;BME280;11853;48.080;11.960;2023-08-30T10:33:48;94191.25;;;17.56;100.00
23363;BME280;11853;48.080;11.960;2023-08-30T10:36:22;94190.53;;;17.29;100.00
23363;BME280;11853;48.080;11.960;2023-08-30T10:38:53;94193.03;;;17.17;100.00
23363;BME280;11853;48.080;11.960;2023-08-30T10:41:26;94191.13;;;17.24;100.00
23363;BME280;11853;48.080;11.960;2023-08-30T10:43:55;94195.28;;;17.20;100.00
23363;BME280;11853;48.080;11.960;2023-08-30T10:46:31;94195.28;;;17.20;100.00
23363;BME280;11853;48.080;11.960;2023-08-30T10:49:08;94187.66;;;17.17;100.00
23363;BME280;11853;48.080;11.960;2023-08-30T10:51:36;94196.94;;;17.08;100.00
23363;BME280;11853;48.080;11.960;2023-08-30T10:54:13;94180.69;;;16.96;100.00
23363;BME280;11853;48.080;11.960;2023-08-30T10:59:19;94181.91;;;17.00;100.00
23363;BME280;11853;48.080;11.960;2023-08-30T11:01:49;94187.06;;;17.08;100.00
23363;BME280;11853;48.080;11.960;2023-08-30T11:04:16;94183.97;;;17.11;100.00
23363;BME280;11853;48.080;11.960;2023-08-30T11:06:47;94184.56;;;17.20;100.00
23363;BME280;11853;48.080;11.960;2023-08-30T11:09:14;94182.25;;;17.30;100.00
23363;BME280;11853;48.080;11.960;2023-08-30T11:11:40;94182.66;;;17.41;100.00
23363;BME280;11853;48.080;11.960;2023-08-30T11:14:08;94185.09;;;17.49;100.00
23363;BME280;11853;48.080;11.960;2023-08-30T11:16:35;94175.34;;;17.61;100.00
23363;BME280;11853;48.080;11.960;2023-08-30T11:19:05;94177.84;;;17.63;100.00
23363;BME280;11853;48.080;11.960;2023-08-30T11:21:42;94181.69;;;17.73;100.00
23363;BME280;11853;48.080;11.960;2023-08-30T11:24:09;94185.22;;;17.81;100.00
23363;BME280;11853;48.080;11.960;2023-08-30T11:26:35;94175.66;;;17.91;100.00
23363;BME280;11853;48.080;11.960;2023-08-30T11:29:07;94176.22;;;18.00;100.00
23363;BME280;11853;48.080;11.960;2023-08-30T11:31:33;94172.69;;;18.06;100.00
23363;BME280;11853;48.080;11.960;2023-08-30T11:33:59;94166.84;;;18.16;100.00
23363;BME280;11853;48.080;11.960;2023-08-30T11:36:29;94174.00;;;18.29;100.00
23363;BME280;11853;48.080;11.960;2023-08-30T11:38:56;94175.81;;;18.35;100.00
23363;BME280;11853;48.080;11.960;2023-08-30T11:41:23;94169.19;;;18.37;100.00
23363;BME280;11853;48.080;11.960;2023-08-30T11:43:49;94167.31;;;18.38;100.00
23363;BME280;11853;48.080;11.960;2023-08-30T11:46:15;94166.25;;;18.39;95.32
23363;BME280;11853;48.080;11.960;2023-08-30T11:48:41;94164.81;;;18.43;96.94
23363;BME280;11853;48.080;11.960;2023-08-30T11:51:08;94164.25;;;18.59;99.23
23363;BME280;11853;48.080;11.960;2023-08-30T11:53:35;94169.47;;;18.54;90.72
23363;BME280;11853;48.080;11.960;2023-08-30T11:56:01;94163.41;;;18.59;90.20
23363;BME280;11853;48.080;11.960;2023-08-30T11:58:27;94168.16;;;18.63;93.61
23363;BME280;11853;48.080;11.960;2023-08-30T12:00:54;94166.47;;;18.62;93.26
23363;BME280;11853;48.080;11.960;2023-08-30T12:03:20;94162.59;;;18.58;92.11
23363;BME280;11853;48.080;11.960;2023-08-30T12:05:46;94157.00;;;18.60;93.62
23363;BME280;11853;48.080;11.960;2023-08-30T12:10:45;94149.34;;;18.63;95.82
23363;BME280;11853;48.080;11.960;2023-08-30T12:13:33;94151.16;;;18.69;96.50
23363;BME280;11853;48.080;11.960;2023-08-30T12:16:00;94141.72;;;18.60;89.53
23363;BME280;11853;48.080;11.960;2023-08-30T12:18:29;94150.16;;;18.64;92.11
23363;BME280;11853;48.080;11.960;2023-08-30T12:21:02;94145.97;;;18.68;95.02
23363;BME280;11853;48.080;11.960;2023-08-30T12:23:30;94149.28;;;18.70;94.98
23363;BME280;11853;48.080;11.960;2023-08-30T12:26:12;94143.91;;;18.70;96.10
23363;BME280;11853;48.080;11.960;2023-08-30T12:28:41;94157.56;;;18.68;96.95
23363;BME280;11853;48.080;11.960;2023-08-30T12:31:07;94144.78;;;18.64;97.15
23363;BME280;11853;48.080;11.960;2023-08-30T12:33:34;94136.56;;;18.59;95.46
23363;BME280;11853;48.080;11.960;2023-08-30T12:36:01;94142.25;;;18.44;92.13
23363;BME280;11853;48.080;11.960;2023-08-30T12:38:26;94136.72;;;18.39;92.52
23363;BME280;11853;48.080;11.960;2023-08-30T12:40:54;94142.31;;;18.37;95.20
23363;BME280;11853;48.080;11.960;2023-08-30T12:43:20;94144.16;;;18.37;95.26
23363;BME280;11853;48.080;11.960;2023-08-30T12:45:46;94141.66;;;18.42;97.17
23363;BME280;11853;48.080;11.960;2023-08-30T12:48:14;94143.34;;;18.36;95.80